sensor_id;sensor_type;location;lat;lon;timestamp;temperature;humidity
4293;DHT22;2160;51.172;6.808;2022-10-20T04:00:56;15.40;99.90
4293;DHT22;2160;51.172;6.808;2022-10-20T04:03:23;15.40;99.90
4293;DHT22;2160;51.172;6.808;2022-10-20T04:05:50;15.30;99.90
4293;DHT22;2160;51.172;6.808;2022-10-20T04:08:17;15.20;99.90
4293;DHT22;2160;51.172;6.808;2022-10-20T04:10:44;15.30;99.90
4293;DHT22;2160;51.172;6.808;2022-10-20T04:13:11;15.20;99.90
4293;DHT22;2160;51.172;6.808;2022-10-20T04:15:38;15.10;99.90
4293;DHT22;2160;51.172;6.808;2022-10-20T04:18:06;15.20;99.90
4293;DHT22;2160;51.172;6.808;2022-10-20T04:20:34;15.20;99.90
4293;DHT22;2160;51.172;6.808;2022-10-20T04:23:01;15.20;99.90
4293;DHT22;2160;51.172;6.808;2022-10-20T04:25:27;15.10;99.90
4293;DHT22;2160;51.172;6.808;2022-10-20T04:27:54;15.20;99.90
4293;DHT22;2160;51.172;6.808;2022-10-20T04:30:21;15.30;99.90
4293;DHT22;2160;51.172;6.808;2022-10-20T04:32:48;15.30;99.90
4293;DHT22;2160;51.172;6.808;2022-10-20T04:35:17;15.10;99.90
4293;DHT22;2160;51.172;6.808;2022-10-20T04:37:44;15.20;99.90
4293;DHT22;2160;51.172;6.808;2022-10-20T04:40:11;15.20;99.90
4293;DHT22;2160;51.172;6.808;2022-10-20T04:42:38;15.20;99.90
4293;DHT22;2160;51.172;6.808;2022-10-20T04:45:08;15.30;99.90
4293;DHT22;2160;51.172;6.808;2022-10-20T04:47:36;15.20;99.90
4293;DHT22;2160;51.172;6.808;2022-10-20T04:50:03;15.20;99.90
4293;DHT22;2160;51.172;6.808;2022-10-20T04:52:32;15.30;99.90
4293;DHT22;2160;51.172;6.808;2022-10-20T04:54:59;15.40;99.90
4293;DHT22;2160;51.172;6.808;2022-10-20T04:57:26;15.50;99.90
4293;DHT22;2160;51.172;6.808;2022-10-20T04:59:53;15.30;99.90
4293;DHT22;2160;51.172;6.808;2022-10-20T05:02:20;15.30;99.90
4293;DHT22;2160;51.172;6.808;2022-10-20T05:04:47;15.20;99.90
4293;DHT22;2160;51.172;6.808;2022-10-20T05:07:14;15.20;99.90
4293;DHT22;2160;51.172;6.808;2022-10-20T05:09:42;15.20;99.90
4293;DHT22;2160;51.172;6.808;2022-10-20T05:12:09;15.20;99.90
4293;DHT22;2160;51.172;6.808;2022-10-20T05:14:36;15.40;99.90
4293;DHT22;2160;51.172;6.808;2022-10-20T05:17:03;15.30;99.90
4293;DHT22;2160;51.172;6.808;2022-10-20T05:19:30;15.40;99.90
4293;DHT22;2160;51.172;6.808;2022-10-20T05:21:56;15.30;99.90
4293;DHT22;2160;51.172;6.808;2022-10-20T05:24:23;15.30;99.90
4293;DHT22;2160;51.172;6.808;2022-10-20T05:26:52;15.50;99.90
4293;DHT22;2160;51.172;6.808;2022-10-20T05:29:19;15.30;99.90
4293;DHT22;2160;51.172;6.808;2022-10-20T05:31:46;15.20;99.90
4293;DHT22;2160;51.172;6.808;2022-10-20T05:34:13;15.10;99.90
4293;DHT22;2160;51.172;6.808;2022-10-20T05:36:40;15.20;99.90
4293;DHT22;2160;51.172;6.808;2022-10-20T05:39:09;15.20;99.90
4293;DHT22;2160;51.172;6.808;2022-10-20T05:41:36;15.30;99.90
4293;DHT22;2160;51.172;6.808;2022-10-20T05:44:06;15.40;99.90
4293;DHT22;2160;51.172;6.808;2022-10-20T05:46:35;15.20;99.90
4293;DHT22;2160;51.172;6.808;2022-10-20T05:49:06;15.30;99.90
4293;DHT22;2160;51.172;6.808;2022-10-20T05:51:34;15.20;99.90
4293;DHT22;2160;51.172;6.808;2022-10-20T05:54:01;15.20;99.90
4293;DHT22;2160;51.172;6.808;2022-10-20T05:56:29;15.20;99.90
4293;DHT22;2160;51.172;6.808;2022-10-20T05:58:57;15.10;99.90
4293;DHT22;2160;51.172;6.808;2022-10-20T06:01:26;15.10;99.90
4293;DHT22;2160;51.172;6.808;2022-10-20T06:04:04;15.20;99.90
4293;DHT22;2160;51.172;6.808;2022-10-20T06:06:31;15.20;99.90
4293;DHT22;2160;51.172;6.808;2022-10-20T06:08:59;15.20;99.90
4293;DHT22;2160;51.172;6.808;2022-10-20T06:11:26;15.10;99.90
4293;DHT22;2160;51.172;6.808;2022-10-20T06:13:53;15.30;99.90
4293;DHT22;2160;51.172;6.808;2022-10-20T06:16:23;15.30;99.90
4293;DHT22;2160;51.172;6.808;2022-10-20T06:18:52;15.30;99.90
4293;DHT22;2160;51.172;6.808;2022-10-20T06:21:21;15.30;99.90
4293;DHT22;2160;51.172;6.808;2022-10-20T06:23:48;15.20;99.90
4293;DHT22;2160;51.172;6.808;2022-10-20T06:26:17;15.30;99.90
4293;DHT22;2160;51.172;6.808;2022-10-20T06:28:46;15.20;99.90
4293;DHT22;2160;51.172;6.808;2022-10-20T06:31:14;15.10;99.90
4293;DHT22;2160;51.172;6.808;2022-10-20T06:33:41;15.10;99.90
4293;DHT22;2160;51.172;6.808;2022-10-20T06:36:10;15.20;99.90
4293;DHT22;2160;51.172;6.808;2022-10-20T06:38:38;15.20;99.90
4293;DHT22;2160;51.172;6.808;2022-10-20T06:41:07;15.10;99.90
4293;DHT22;2160;51.172;6.808;2022-10-20T06:43:35;15.30;99.90
4293;DHT22;2160;51.172;6.808;2022-10-20T06:46:03;15.20;99.90
4293;DHT22;2160;51.172;6.808;2022-10-20T06:48:31;15.40;99.90
4293;DHT22;2160;51.172;6.808;2022-10-20T06:51:00;15.40;99.90
4293;DHT22;2160;51.172;6.808;2022-10-20T06:53:29;15.30;99.90
4293;DHT22;2160;51.172;6.808;2022-10-20T06:55:57;15.30;99.90
4293;DHT22;2160;51.172;6.808;2022-10-20T06:58:24;15.20;99.90
4293;DHT22;2160;51.172;6.808;2022-10-20T07:00:58;15.20;99.90
4293;DHT22;2160;51.172;6.808;2022-10-20T07:03:26;15.20;99.90
4293;DHT22;2160;51.172;6.808;2022-10-20T07:05:53;15.30;99.90
4293;DHT22;2160;51.172;6.808;2022-10-20T07:08:21;15.30;99.90
4293;DHT22;2160;51.172;6.808;2022-10-20T07:10:59;15.20;99.90
4293;DHT22;2160;51.172;6.808;2022-10-20T07:13:28;15.10;99.90
4293;DHT22;2160;51.172;6.808;2022-10-20T07:15:55;15.30;99.90
4293;DHT22;2160;51.172;6.808;2022-10-20T07:18:24;15.40;99.90
4293;DHT22;2160;51.172;6.808;2022-10-20T07:20:51;15.50;99.90
4293;DHT22;2160;51.172;6.808;2022-10-20T07:23:21;15.50;99.90
4293;DHT22;2160;51.172;6.808;2022-10-20T07:25:48;15.50;99.90
4293;DHT22;2160;51.172;6.808;2022-10-20T07:28:16;15.50;99.90
4293;DHT22;2160;51.172;6.808;2022-10-20T07:30:46;15.40;99.90
4293;DHT22;2160;51.172;6.808;2022-10-20T07:33:13;15.50;99.90
4293;DHT22;2160;51.172;6.808;2022-10-20T07:35:40;15.60;99.90
4293;DHT22;2160;51.172;6.808;2022-10-20T07:38:07;15.60;99.90
4293;DHT22;2160;51.172;6.808;2022-10-20T07:40:34;15.50;99.90
4293;DHT22;2160;51.172;6.808;2022-10-20T07:43:01;15.60;99.90
4293;DHT22;2160;51.172;6.808;2022-10-20T07:45:29;15.50;99.90
4293;DHT22;2160;51.172;6.808;2022-10-20T07:47:56;15.50;99.90
4293;DHT22;2160;51.172;6.808;2022-10-20T07:50:24;15.60;99.90
4293;DHT22;2160;51.172;6.808;2022-10-20T07:52:51;15.60;99.90
4293;DHT22;2160;51.172;6.808;2022-10-20T07:55:18;15.50;99.90
4293;DHT22;2160;51.172;6.808;2022-10-20T07:57:46;15.60;99.90
4293;DHT22;2160;51.172;6.808;2022-10-20T08:00:13;15.60;99.90
4293;DHT22;2160;51.172;6.808;2022-10-20T08:02:42;15.60;99.90
4293;DHT22;2160;51.172;6.808;2022-10-20T08:05:10;15.60;99.90
4293;DHT22;2160;51.172;6.808;2022-10-20T08:07:37;15.60;99.90
4293;DHT22;2160;51.172;6.808;2022-10-20T08:10:04;15.60;99.90
4293;DHT22;2160;51.172;6.808;2022-10-20T08:12:31;15.50;99.90
4293;DHT22;2160;51.172;6.808;2022-10-20T08:14:58;15.40;99.90
4293;DHT22;2160;51.172;6.808;2022-10-20T08:17:25;15.60;99.90
4293;DHT22;2160;51.172;6.808;2022-10-20T08:19:54;15.70;99.90
4293;DHT22;2160;51.172;6.808;2022-10-20T08:22:21;16.00;99.90
4293;DHT22;2160;51.172;6.808;2022-10-20T08:24:48;15.70;99.90
4293;DHT22;2160;51.172;6.808;2022-10-20T08:27:15;15.70;99.90
4293;DHT22;2160;51.172;6.808;2022-10-20T08:29:42;15.90;99.90
4293;DHT22;2160;51.172;6.808;2022-10-20T08:32:09;16.00;99.90
4293;DHT22;2160;51.172;6.808;2022-10-20T08:34:37;16.00;99.90
4293;DHT22;2160;51.172;6.808;2022-10-20T08:37:05;16.10;99.90
4293;DHT22;2160;51.172;6.808;2022-10-20T08:39:33;16.10;99.90
4293;DHT22;2160;51.172;6.808;2022-10-20T08:42:01;16.00;99.90
4293;DHT22;2160;51.172;6.808;2022-10-20T08:44:31;16.10;99.90
4293;DHT22;2160;51.172;6.808;2022-10-20T08:47:01;16.10;99.90
4293;DHT22;2160;51.172;6.808;2022-10-20T08:49:31;15.90;99.90
4293;DHT22;2160;51.172;6.808;2022-10-20T08:52:00;15.90;99.90
4293;DHT22;2160;51.172;6.808;2022-10-20T08:54:30;15.90;99.90
4293;DHT22;2160;51.172;6.808;2022-10-20T08:56:58;16.00;99.90
4293;DHT22;2160;51.172;6.808;2022-10-20T08:59:27;16.10;99.90
4293;DHT22;2160;51.172;6.808;2022-10-20T09:01:55;16.30;99.90
4293;DHT22;2160;51.172;6.808;2022-10-20T09:04:25;16.30;99.90
4293;DHT22;2160;51.172;6.808;2022-10-20T09:06:56;16.20;99.90
4293;DHT22;2160;51.172;6.808;2022-10-20T09:09:29;16.30;99.90
4293;DHT22;2160;51.172;6.808;2022-10-20T09:12:03;16.30;99.90
4293;DHT22;2160;51.172;6.808;2022-10-20T09:14:33;16.30;99.90
4293;DHT22;2160;51.172;6.808;2022-10-20T09:17:00;16.20;99.90
4293;DHT22;2160;51.172;6.808;2022-10-20T09:19:28;16.30;99.90
4293;DHT22;2160;51.172;6.808;2022-10-20T09:21:57;16.30;99.90
4293;DHT22;2160;51.172;6.808;2022-10-20T09:24:27;16.30;99.90
4293;DHT22;2160;51.172;6.808;2022-10-20T09:26:56;16.30;99.90
4293;DHT22;2160;51.172;6.808;2022-10-20T09:29:41;16.70;99.90
4293;DHT22;2160;51.172;6.808;2022-10-20T09:32:17;16.80;99.90
4293;DHT22;2160;51.172;6.808;2022-10-20T09:34:44;17.00;99.90
4293;DHT22;2160;51.172;6.808;2022-10-20T09:37:12;17.00;99.90
4293;DHT22;2160;51.172;6.808;2022-10-20T09:39:49;16.90;99.90
4293;DHT22;2160;51.172;6.808;2022-10-20T09:42:21;16.80;99.90
4293;DHT22;2160;51.172;6.808;2022-10-20T09:44:51;16.80;99.90
4293;DHT22;2160;51.172;6.808;2022-10-20T09:47:22;17.20;99.90
4293;DHT22;2160;51.172;6.808;2022-10-20T09:49:53;17.20;99.90
4293;DHT22;2160;51.172;6.808;2022-10-20T09:52:26;17.20;99.90
4293;DHT22;2160;51.172;6.808;2022-10-20T09:54:58;17.00;99.90
4293;DHT22;2160;51.172;6.808;2022-10-20T09:57:27;16.70;99.90
4293;DHT22;2160;51.172;6.808;2022-10-20T09:59:55;16.80;99.90
4293;DHT22;2160;51.172;6.808;2022-10-20T10:02:28;16.50;99.90
4293;DHT22;2160;51.172;6.808;2022-10-20T10:05:13;16.50;99.90
4293;DHT22;2160;51.172;6.808;2022-10-20T10:07:40;16.60;99.90
4293;DHT22;2160;51.172;6.808;2022-10-20T10:10:22;16.70;99.90
4293;DHT22;2160;51.172;6.808;2022-10-20T10:12:52;16.60;99.90
4293;DHT22;2160;51.172;6.808;2022-10-20T10:15:26;16.90;99.90
4293;DHT22;2160;51.172;6.808;2022-10-20T10:17:54;16.70;99.90
4293;DHT22;2160;51.172;6.808;2022-10-20T10:20:31;16.90;99.90
4293;DHT22;2160;51.172;6.808;2022-10-20T10:23:18;16.90;99.90
4293;DHT22;2160;51.172;6.808;2022-10-20T10:25:46;17.00;99.90
4293;DHT22;2160;51.172;6.808;2022-10-20T10:28:26;17.10;99.90
4293;DHT22;2160;51.172;6.808;2022-10-20T10:31:12;17.00;99.90
4293;DHT22;2160;51.172;6.808;2022-10-20T10:33:45;16.90;99.90
4293;DHT22;2160;51.172;6.808;2022-10-20T10:36:17;16.80;99.90
4293;DHT22;2160;51.172;6.808;2022-10-20T10:38:46;17.00;99.90
4293;DHT22;2160;51.172;6.808;2022-10-20T10:41:19;17.30;99.90
4293;DHT22;2160;51.172;6.808;2022-10-20T10:43:55;17.20;99.90
4293;DHT22;2160;51.172;6.808;2022-10-20T10:46:26;17.10;99.90
4293;DHT22;2160;51.172;6.808;2022-10-20T10:49:20;17.00;99.90
4293;DHT22;2160;51.172;6.808;2022-10-20T10:51:57;16.90;99.90
4293;DHT22;2160;51.172;6.808;2022-10-20T10:54:42;17.00;99.90
4293;DHT22;2160;51.172;6.808;2022-10-20T10:57:21;17.40;99.90
4293;DHT22;2160;51.172;6.808;2022-10-20T10:59:52;17.70;99.90
4293;DHT22;2160;51.172;6.808;2022-10-20T11:05:50;17.70;99.90
4293;DHT22;2160;51.172;6.808;2022-10-20T11:08:28;17.50;99.90
4293;DHT22;2160;51.172;6.808;2022-10-20T11:11:03;17.30;99.90
4293;DHT22;2160;51.172;6.808;2022-10-20T11:13:34;17.10;99.90
4293;DHT22;2160;51.172;6.808;2022-10-20T11:16:17;17.10;99.90
4293;DHT22;2160;51.172;6.808;2022-10-20T11:19:03;17.00;99.90
4293;DHT22;2160;51.172;6.808;2022-10-20T11:21:38;16.80;99.90
4293;DHT22;2160;51.172;6.808;2022-10-20T11:24:21;16.60;99.90
4293;DHT22;2160;51.172;6.808;2022-10-20T11:26:54;16.60;99.90
4293;DHT22;2160;51.172;6.808;2022-10-20T11:29:28;16.70;99.90
4293;DHT22;2160;51.172;6.808;2022-10-20T11:32:06;16.40;99.90
4293;DHT22;2160;51.172;6.808;2022-10-20T11:34:39;16.50;99.90
4293;DHT22;2160;51.172;6.808;2022-10-20T11:37:17;16.70;99.90
4293;DHT22;2160;51.172;6.808;2022-10-20T11:39:51;16.80;99.90
4293;DHT22;2160;51.172;6.808;2022-10-20T11:42:29;16.60;99.90
4293;DHT22;2160;51.172;6.808;2022-10-20T11:44:59;16.30;99.90
4293;DHT22;2160;51.172;6.808;2022-10-20T11:47:32;16.10;99.90
4293;DHT22;2160;51.172;6.808;2022-10-20T11:50:03;16.10;99.90
4293;DHT22;2160;51.172;6.808;2022-10-20T11:52:44;16.30;99.90
4293;DHT22;2160;51.172;6.808;2022-10-20T11:55:31;16.30;99.90
4293;DHT22;2160;51.172;6.808;2022-10-20T11:58:14;16.00;99.90
4293;DHT22;2160;51.172;6.808;2022-10-20T12:00:56;15.90;99.90
4293;DHT22;2160;51.172;6.808;2022-10-20T12:06:44;16.00;99.90
4293;DHT22;2160;51.172;6.808;2022-10-20T12:12:26;16.00;99.90
4293;DHT22;2160;51.172;6.808;2022-10-20T12:14:56;15.90;99.90
4293;DHT22;2160;51.172;6.808;2022-10-20T12:17:31;15.90;99.90
4293;DHT22;2160;51.172;6.808;2022-10-20T12:23:04;16.30;99.90
4293;DHT22;2160;51.172;6.808;2022-10-20T12:25:38;16.30;99.90
4293;DHT22;2160;51.172;6.808;2022-10-20T12:28:39;16.20;99.90
4293;DHT22;2160;51.172;6.808;2022-10-20T12:31:07;16.30;99.90
4293;DHT22;2160;51.172;6.808;2022-10-20T12:33:59;16.50;99.90
4293;DHT22;2160;51.172;6.808;2022-10-20T12:36:35;16.60;99.90
4293;DHT22;2160;51.172;6.808;2022-10-20T12:39:19;16.70;99.90
4293;DHT22;2160;51.172;6.808;2022-10-20T12:41:57;16.50;99.90
4293;DHT22;2160;51.172;6.808;2022-10-20T12:44:26;16.60;99.90
4293;DHT22;2160;51.172;6.808;2022-10-20T12:46:56;16.40;99.90
4293;DHT22;2160;51.172;6.808;2022-10-20T12:49:28;16.40;99.90
4293;DHT22;2160;51.172;6.808;2022-10-20T12:51:58;16.50;99.90
4293;DHT22;2160;51.172;6.808;2022-10-20T12:54:31;16.60;99.90
4293;DHT22;2160;51.172;6.808;2022-10-20T12:57:03;16.40;99.90
4293;DHT22;2160;51.172;6.808;2022-10-20T12:59:36;16.40;99.90
4293;DHT22;2160;51.172;6.808;2022-10-20T13:02:50;16.70;99.90
4293;DHT22;2160;51.172;6.808;2022-10-20T13:05:43;16.90;99.90
4293;DHT22;2160;51.172;6.808;2022-10-20T13:08:27;17.00;99.90
4293;DHT22;2160;51.172;6.808;2022-10-20T13:11:33;16.80;99.90
4293;DHT22;2160;51.172;6.808;2022-10-20T13:14:26;16.80;99.90
4293;DHT22;2160;51.172;6.808;2022-10-20T13:17:04;16.70;99.90
4293;DHT22;2160;51.172;6.808;2022-10-20T13:19:43;16.80;99.90
4293;DHT22;2160;51.172;6.808;2022-10-20T13:22:35;16.70;99.90
4293;DHT22;2160;51.172;6.808;2022-10-20T13:25:09;16.70;99.90
4293;DHT22;2160;51.172;6.808;2022-10-20T13:27:38;16.60;99.90
4293;DHT22;2160;51.172;6.808;2022-10-20T13:30:07;16.50;99.90
4293;DHT22;2160;51.172;6.808;2022-10-20T13:32:39;16.60;99.90
4293;DHT22;2160;51.172;6.808;2022-10-20T13:35:12;16.70;99.90
4293;DHT22;2160;51.172;6.808;2022-10-20T13:37:54;16.80;99.90
4293;DHT22;2160;51.172;6.808;2022-10-20T13:40:31;17.00;99.90
4293;DHT22;2160;51.172;6.808;2022-10-20T13:43:09;16.80;99.90
4293;DHT22;2160;51.172;6.808;2022-10-20T13:48:39;16.90;99.90
4293;DHT22;2160;51.172;6.808;2022-10-20T13:51:12;17.10;99.90
4293;DHT22;2160;51.172;6.808;2022-10-20T13:53:43;17.10;99.90
4293;DHT22;2160;51.172;6.808;2022-10-20T13:56:19;17.10;99.90
4293;DHT22;2160;51.172;6.808;2022-10-20T13:58:58;17.20;99.90
4293;DHT22;2160;51.172;6.808;2022-10-20T14:01:26;17.30;99.90
4293;DHT22;2160;51.172;6.808;2022-10-20T14:03:53;17.60;99.90
4293;DHT22;2160;51.172;6.808;2022-10-20T14:06:34;17.40;99.90
4293;DHT22;2160;51.172;6.808;2022-10-20T14:09:11;17.50;99.90
4293;DHT22;2160;51.172;6.808;2022-10-20T14:11:38;17.60;99.90
4293;DHT22;2160;51.172;6.808;2022-10-20T14:14:12;17.50;99.90
4293;DHT22;2160;51.172;6.808;2022-10-20T14:16:39;17.50;99.90
4293;DHT22;2160;51.172;6.808;2022-10-20T14:19:12;17.60;99.90
4293;DHT22;2160;51.172;6.808;2022-10-20T14:21:40;17.80;99.90
4293;DHT22;2160;51.172;6.808;2022-10-20T14:24:11;18.00;99.90
4293;DHT22;2160;51.172;6.808;2022-10-20T14:26:41;17.90;99.90
4293;DHT22;2160;51.172;6.808;2022-10-20T14:29:11;17.70;99.90
4293;DHT22;2160;51.172;6.808;2022-10-20T14:31:38;17.70;99.90
4293;DHT22;2160;51.172;6.808;2022-10-20T14:34:17;17.80;99.90
4293;DHT22;2160;51.172;6.808;2022-10-20T14:36:44;17.60;99.90
4293;DHT22;2160;51.172;6.808;2022-10-20T14:39:20;17.50;99.90
4293;DHT22;2160;51.172;6.808;2022-10-20T14:41:48;17.60;99.90
4293;DHT22;2160;51.172;6.808;2022-10-20T14:44:21;17.50;99.90
4293;DHT22;2160;51.172;6.808;2022-10-20T14:46:49;17.50;99.90
4293;DHT22;2160;51.172;6.808;2022-10-20T14:49:21;17.50;99.90
4293;DHT22;2160;51.172;6.808;2022-10-20T14:51:55;17.50;99.90
4293;DHT22;2160;51.172;6.808;2022-10-20T14:54:25;17.50;99.90
4293;DHT22;2160;51.172;6.808;2022-10-20T14:56:56;17.50;99.90
4293;DHT22;2160;51.172;6.808;2022-10-20T14:59:26;17.40;99.90
4293;DHT22;2160;51.172;6.808;2022-10-20T15:02:02;17.40;99.90
4293;DHT22;2160;51.172;6.808;2022-10-20T15:04:34;17.20;99.90
4293;DHT22;2160;51.172;6.808;2022-10-20T15:07:03;17.30;99.90
4293;DHT22;2160;51.172;6.808;2022-10-20T15:09:36;17.30;99.90
4293;DHT22;2160;51.172;6.808;2022-10-20T15:12:06;17.20;99.90
4293;DHT22;2160;51.172;6.808;2022-10-20T15:14:34;17.30;99.90
4293;DHT22;2160;51.172;6.808;2022-10-20T15:17:01;17.10;99.90
4293;DHT22;2160;51.172;6.808;2022-10-20T15:19:30;17.30;99.90
4293;DHT22;2160;51.172;6.808;2022-10-20T15:22:09;17.30;99.90
4293;DHT22;2160;51.172;6.808;2022-10-20T15:24:37;17.40;99.90
4293;DHT22;2160;51.172;6.808;2022-10-20T15:27:05;17.60;99.90
4293;DHT22;2160;51.172;6.808;2022-10-20T15:29:34;17.70;99.90
4293;DHT22;2160;51.172;6.808;2022-10-20T15:32:00;17.90;99.90
4293;DHT22;2160;51.172;6.808;2022-10-20T15:34:27;18.10;99.90
4293;DHT22;2160;51.172;6.808;2022-10-20T15:36:54;18.20;99.90
4293;DHT22;2160;51.172;6.808;2022-10-20T15:39:21;17.90;99.90
4293;DHT22;2160;51.172;6.808;2022-10-20T15:41:48;17.90;99.90
4293;DHT22;2160;51.172;6.808;2022-10-20T15:44:16;17.70;99.90
4293;DHT22;2160;51.172;6.808;2022-10-20T15:46:49;17.60;99.90
4293;DHT22;2160;51.172;6.808;2022-10-20T15:49:17;17.60;99.90
4293;DHT22;2160;51.172;6.808;2022-10-20T15:51:45;17.50;99.90
4293;DHT22;2160;51.172;6.808;2022-10-20T15:54:14;17.40;99.90
4293;DHT22;2160;51.172;6.808;2022-10-20T15:56:42;17.40;99.90
4293;DHT22;2160;51.172;6.808;2022-10-20T15:59:09;17.40;99.90
4293;DHT22;2160;51.172;6.808;2022-10-20T16:01:36;17.50;99.90
4293;DHT22;2160;51.172;6.808;2022-10-20T16:04:14;17.50;99.90
4293;DHT22;2160;51.172;6.808;2022-10-20T16:06:42;17.60;99.90
4293;DHT22;2160;51.172;6.808;2022-10-20T16:09:08;17.40;99.90
4293;DHT22;2160;51.172;6.808;2022-10-20T16:11:35;17.40;99.90
4293;DHT22;2160;51.172;6.808;2022-10-20T16:14:02;17.40;99.90
4293;DHT22;2160;51.172;6.808;2022-10-20T16:16:30;17.40;99.90
4293;DHT22;2160;51.172;6.808;2022-10-20T16:18:57;17.50;99.90
4293;DHT22;2160;51.172;6.808;2022-10-20T16:21:26;17.60;99.90
4293;DHT22;2160;51.172;6.808;2022-10-20T16:23:53;17.70;99.90
4293;DHT22;2160;51.172;6.808;2022-10-20T16:26:19;17.80;99.90
4293;DHT22;2160;51.172;6.808;2022-10-20T16:28:47;17.80;99.90
4293;DHT22;2160;51.172;6.808;2022-10-20T16:31:15;17.50;99.90
4293;DHT22;2160;51.172;6.808;2022-10-20T16:33:42;17.40;99.90
4293;DHT22;2160;51.172;6.808;2022-10-20T16:36:11;17.30;99.90
4293;DHT22;2160;51.172;6.808;2022-10-20T16:38:40;17.40;99.90
4293;DHT22;2160;51.172;6.808;2022-10-20T16:41:09;17.40;99.90
4293;DHT22;2160;51.172;6.808;2022-10-20T16:43:37;17.30;99.90
4293;DHT22;2160;51.172;6.808;2022-10-20T16:46:05;17.40;99.90
4293;DHT22;2160;51.172;6.808;2022-10-20T16:48:32;17.30;99.90
4293;DHT22;2160;51.172;6.808;2022-10-20T16:50:58;17.30;99.90
4293;DHT22;2160;51.172;6.808;2022-10-20T16:53:25;17.30;99.90
4293;DHT22;2160;51.172;6.808;2022-10-20T16:55:55;17.30;99.90
4293;DHT22;2160;51.172;6.808;2022-10-20T16:58:22;17.40;99.90
4293;DHT22;2160;51.172;6.808;2022-10-20T17:00:58;17.60;99.90
4293;DHT22;2160;51.172;6.808;2022-10-20T17:03:25;17.60;99.90
4293;DHT22;2160;51.172;6.808;2022-10-20T17:05:56;17.60;99.90
4293;DHT22;2160;51.172;6.808;2022-10-20T17:08:24;17.20;99.90
4293;DHT22;2160;51.172;6.808;2022-10-20T17:10:57;17.20;99.90
4293;DHT22;2160;51.172;6.808;2022-10-20T17:13:24;17.20;99.90
4293;DHT22;2160;51.172;6.808;2022-10-20T17:15:52;17.10;99.90
4293;DHT22;2160;51.172;6.808;2022-10-20T17:18:19;17.10;99.90
4293;DHT22;2160;51.172;6.808;2022-10-20T17:20:51;17.30;99.90
4293;DHT22;2160;51.172;6.808;2022-10-20T17:23:18;17.30;99.90
4293;DHT22;2160;51.172;6.808;2022-10-20T17:25:45;17.20;99.90
4293;DHT22;2160;51.172;6.808;2022-10-20T17:28:13;17.10;99.90
4293;DHT22;2160;51.172;6.808;2022-10-20T17:30:40;17.10;99.90
4293;DHT22;2160;51.172;6.808;2022-10-20T17:33:08;17.10;99.90
4293;DHT22;2160;51.172;6.808;2022-10-20T17:35:35;17.10;99.90
4293;DHT22;2160;51.172;6.808;2022-10-20T17:38:02;17.10;99.90
4293;DHT22;2160;51.172;6.808;2022-10-20T17:40:30;17.10;99.90
4293;DHT22;2160;51.172;6.808;2022-10-20T17:43:00;17.20;99.90
4293;DHT22;2160;51.172;6.808;2022-10-20T17:45:29;17.20;99.90
4293;DHT22;2160;51.172;6.808;2022-10-20T17:47:56;17.10;99.90
4293;DHT22;2160;51.172;6.808;2022-10-20T17:50:23;17.20;99.90
4293;DHT22;2160;51.172;6.808;2022-10-20T17:52:50;17.40;99.90
4293;DHT22;2160;51.172;6.808;2022-10-20T17:55:17;17.50;99.90
4293;DHT22;2160;51.172;6.808;2022-10-20T17:57:44;17.40;99.90
4293;DHT22;2160;51.172;6.808;2022-10-20T18:00:11;17.40;99.90
4293;DHT22;2160;51.172;6.808;2022-10-20T18:02:45;17.40;99.90
4293;DHT22;2160;51.172;6.808;2022-10-20T18:05:12;17.50;99.90
4293;DHT22;2160;51.172;6.808;2022-10-20T18:07:39;17.50;99.90
4293;DHT22;2160;51.172;6.808;2022-10-20T18:10:06;17.50;99.90
4293;DHT22;2160;51.172;6.808;2022-10-20T18:12:33;17.60;99.90
4293;DHT22;2160;51.172;6.808;2022-10-20T18:15:00;17.70;99.90
4293;DHT22;2160;51.172;6.808;2022-10-20T18:17:27;17.80;99.90
4293;DHT22;2160;51.172;6.808;2022-10-20T18:19:55;17.70;99.90
4293;DHT22;2160;51.172;6.808;2022-10-20T18:22:24;17.80;99.90
4293;DHT22;2160;51.172;6.808;2022-10-20T18:24:52;17.50;99.90
4293;DHT22;2160;51.172;6.808;2022-10-20T18:27:19;17.70;99.90
4293;DHT22;2160;51.172;6.808;2022-10-20T18:29:46;17.50;99.90
4293;DHT22;2160;51.172;6.808;2022-10-20T18:32:13;17.60;99.90
4293;DHT22;2160;51.172;6.808;2022-10-20T18:34:40;17.50;99.90
4293;DHT22;2160;51.172;6.808;2022-10-20T18:37:09;17.50;99.90
4293;DHT22;2160;51.172;6.808;2022-10-20T18:39:39;17.50;99.90
4293;DHT22;2160;51.172;6.808;2022-10-20T18:42:06;17.40;99.90
4293;DHT22;2160;51.172;6.808;2022-10-20T18:44:33;17.40;99.90
4293;DHT22;2160;51.172;6.808;2022-10-20T18:47:00;17.40;99.90
4293;DHT22;2160;51.172;6.808;2022-10-20T18:49:27;17.60;99.90
4293;DHT22;2160;51.172;6.808;2022-10-20T18:51:54;17.50;99.90
4293;DHT22;2160;51.172;6.808;2022-10-20T18:54:22;17.50;99.90
4293;DHT22;2160;51.172;6.808;2022-10-20T18:56:49;17.50;99.90
4293;DHT22;2160;51.172;6.808;2022-10-20T18:59:16;17.50;99.90
4293;DHT22;2160;51.172;6.808;2022-10-20T19:01:44;17.40;99.90
4293;DHT22;2160;51.172;6.808;2022-10-20T19:04:12;17.30;99.90
4293;DHT22;2160;51.172;6.808;2022-10-20T19:06:41;17.20;99.90
4293;DHT22;2160;51.172;6.808;2022-10-20T19:09:09;17.20;99.90
4293;DHT22;2160;51.172;6.808;2022-10-20T19:11:40;17.40;99.90
4293;DHT22;2160;51.172;6.808;2022-10-20T19:14:08;17.40;99.90
4293;DHT22;2160;51.172;6.808;2022-10-20T19:16:37;17.40;99.90
4293;DHT22;2160;51.172;6.808;2022-10-20T19:19:05;17.60;99.90
4293;DHT22;2160;51.172;6.808;2022-10-20T19:21:33;17.50;99.90
4293;DHT22;2160;51.172;6.808;2022-10-20T19:24:02;17.60;99.90
4293;DHT22;2160;51.172;6.808;2022-10-20T19:26:31;17.70;99.90
4293;DHT22;2160;51.172;6.808;2022-10-20T19:29:02;17.70;99.90
4293;DHT22;2160;51.172;6.808;2022-10-20T19:31:32;17.60;99.90
4293;DHT22;2160;51.172;6.808;2022-10-20T19:34:02;17.60;99.90
4293;DHT22;2160;51.172;6.808;2022-10-20T19:36:30;17.50;99.90
4293;DHT22;2160;51.172;6.808;2022-10-20T19:38:57;17.60;99.90
4293;DHT22;2160;51.172;6.808;2022-10-20T19:41:25;17.80;99.90
4293;DHT22;2160;51.172;6.808;2022-10-20T19:43:53;17.60;99.90
4293;DHT22;2160;51.172;6.808;2022-10-20T19:46:21;17.90;99.90
4293;DHT22;2160;51.172;6.808;2022-10-20T19:48:48;17.60;99.90
4293;DHT22;2160;51.172;6.808;2022-10-20T19:51:17;17.60;99.90
4293;DHT22;2160;51.172;6.808;2022-10-20T19:53:45;17.60;99.90
4293;DHT22;2160;51.172;6.808;2022-10-20T19:56:13;17.50;99.90
4293;DHT22;2160;51.172;6.808;2022-10-20T19:58:40;17.60;99.90
4293;DHT22;2160;51.172;6.808;2022-10-20T20:01:08;17.70;99.90
4293;DHT22;2160;51.172;6.808;2022-10-20T20:03:37;17.70;99.90
4293;DHT22;2160;51.172;6.808;2022-10-20T20:06:05;17.70;99.90
4293;DHT22;2160;51.172;6.808;2022-10-20T20:08:33;17.50;99.90
4293;DHT22;2160;51.172;6.808;2022-10-20T20:11:00;17.60;99.90
4293;DHT22;2160;51.172;6.808;2022-10-20T20:13:28;17.50;99.90
4293;DHT22;2160;51.172;6.808;2022-10-20T20:15:55;17.50;99.90
4293;DHT22;2160;51.172;6.808;2022-10-20T20:18:22;17.40;99.90
4293;DHT22;2160;51.172;6.808;2022-10-20T20:20:51;17.40;99.90
4293;DHT22;2160;51.172;6.808;2022-10-20T20:23:18;17.40;99.90
4293;DHT22;2160;51.172;6.808;2022-10-20T20:25:45;17.40;99.90
4293;DHT22;2160;51.172;6.808;2022-10-20T20:28:12;17.40;99.90
4293;DHT22;2160;51.172;6.808;2022-10-20T20:30:39;17.40;99.90
4293;DHT22;2160;51.172;6.808;2022-10-20T20:33:06;17.50;99.90
4293;DHT22;2160;51.172;6.808;2022-10-20T20:35:32;17.50;99.90
4293;DHT22;2160;51.172;6.808;2022-10-20T20:38:01;17.40;99.90